Time;durP1;ratioP1;P1;durP2;ratioP2;P2;SDS_P1;SDS_P2;PMS_P1;PMS_P2;Temp;Humidity;BMP_temperature;BMP_pressure;BME280_temperature;BME280_humidity;BME280_pressure;Samples;Min_cycle;Max_cycle;Signal;HPM_P1;HPM_P2
2023/04/29 00:01:25;;;;;;;7.28;3.08;;;;;;;2.09;76.39;96587.00;5075345;28;20051;-63
2023/04/29 00:03:53;;;;;;;4.18;3.20;;;;;;;2.04;76.38;96581.88;5075298;28;20044;-63
2023/04/29 00:06:22;;;;;;;5.88;3.42;;;;;;;2.00;76.64;96591.38;5075289;28;20049;-62
2023/04/29 00:08:50;;;;;;;5.35;3.08;;;;;;;1.94;76.48;96582.75;5074121;28;20048;-64
2023/04/29 00:11:18;;;;;;;6.38;3.40;;;;;;;1.91;76.37;96581.06;5075629;28;20052;-62
2023/04/29 00:13:45;;;;;;;7.55;3.58;;;;;;;1.91;76.67;96582.78;5075411;28;20048;-62
2023/04/29 00:16:16;;;;;;;5.85;3.38;;;;;;;1.92;76.88;96580.19;5075133;28;20053;-63
2023/04/29 00:18:43;;;;;;;7.97;3.15;;;;;;;1.96;76.98;96581.88;5075078;28;20056;-63
2023/04/29 00:21:11;;;;;;;4.13;3.40;;;;;;;1.99;76.77;96584.47;5075049;28;20518;-64
2023/04/29 00:23:40;;;;;;;6.43;3.42;;;;;;;1.97;76.93;96583.63;5075066;28;20040;-63
2023/04/29 00:26:07;;;;;;;4.78;3.70;;;;;;;1.90;77.27;96587.09;5075123;28;20060;-61
2023/04/29 00:28:34;;;;;;;5.85;3.53;;;;;;;1.92;77.01;96581.94;5074768;28;20047;-65
2023/04/29 00:31:02;;;;;;;6.45;3.88;;;;;;;1.74;76.71;96588.81;5074787;28;20040;-60
2023/04/29 00:33:29;;;;;;;5.40;3.03;;;;;;;1.72;77.05;96586.25;5074775;28;20044;-63
2023/04/29 00:35:56;;;;;;;6.13;3.45;;;;;;;1.73;76.92;96584.53;5074756;28;20056;-66
2023/04/29 00:38:27;;;;;;;4.15;3.08;;;;;;;1.70;77.45;96588.00;5074879;28;20072;-66
2023/04/29 00:40:57;;;;;;;6.00;3.45;;;;;;;1.69;77.63;96581.13;5074614;28;20079;-63
2023/04/29 00:43:24;;;;;;;6.82;3.40;;;;;;;1.61;77.48;96582.84;5074394;28;20044;-63
2023/04/29 00:45:53;;;;;;;6.50;3.67;;;;;;;1.59;77.86;96582.84;5074511;28;20051;-64
2023/04/29 00:48:21;;;;;;;6.43;3.70;;;;;;;1.60;77.56;96576.81;5074353;28;20052;-62
2023/04/29 00:50:50;;;;;;;4.10;3.35;;;;;;;1.56;77.97;96582.84;5074376;28;20182;-64
2023/04/29 00:53:17;;;;;;;5.60;3.55;;;;;;;1.54;78.42;96578.56;5074396;28;20482;-66
2023/04/29 00:55:47;;;;;;;7.43;3.88;;;;;;;1.55;77.89;96575.97;5074176;28;20056;-61
2023/04/29 00:58:17;;;;;;;5.43;3.80;;;;;;;1.55;78.02;96577.69;5074470;28;20072;-62
2023/04/29 01:00:46;;;;;;;7.47;2.70;;;;;;;1.50;78.08;96575.97;5074253;28;20058;-66
2023/04/29 01:03:14;;;;;;;8.15;3.85;;;;;;;1.44;78.47;96582.88;5074132;28;20052;-65
2023/04/29 01:05:41;;;;;;;9.95;3.85;;;;;;;1.37;78.29;96575.16;5074059;28;20391;-63
2023/04/29 01:08:30;;;;;;;5.93;3.90;;;;;;;1.38;78.42;96579.44;5074088;28;20128;-63
2023/04/29 01:11:08;;;;;;;6.20;3.42;;;;;;;1.42;78.00;96580.31;5074052;28;20485;-63
2023/04/29 01:13:43;;;;;;;3.60;3.15;;;;;;;1.42;77.80;96570.00;5074106;28;20097;-62
2023/04/29 01:16:20;;;;;;;5.30;3.13;;;;;;;1.35;77.97;96571.69;5073823;28;20060;-64
2023/04/29 01:18:52;;;;;;;5.93;3.55;;;;;;;1.34;78.24;96571.69;5073855;28;20410;-63
2023/04/29 01:21:21;;;;;;;7.45;3.42;;;;;;;1.33;78.47;96563.13;5073609;28;20096;-63
2023/04/29 01:23:54;;;;;;;5.57;3.65;;;;;;;1.29;78.02;96568.28;5073817;28;20045;-62
2023/04/29 01:26:22;;;;;;;7.68;3.45;;;;;;;1.26;78.06;96566.53;5073685;28;20053;-64
2023/04/29 01:28:59;;;;;;;13.35;3.63;;;;;;;1.25;78.15;96559.69;5073771;28;20494;-62
2023/04/29 01:31:32;;;;;;;7.15;3.30;;;;;;;1.17;78.01;96557.09;5073688;28;20052;-61
2023/04/29 01:34:09;;;;;;;6.60;4.30;;;;;;;1.04;78.37;96550.22;5073582;28;20131;-64
2023/04/29 01:36:53;;;;;;;5.93;3.30;;;;;;;1.07;78.99;96548.53;5073399;28;20102;-67
2023/04/29 01:39:33;;;;;;;4.00;3.40;;;;;;;0.99;78.66;96553.66;5073727;28;20087;-66
2023/04/29 01:42:06;;;;;;;5.70;3.83;;;;;;;0.94;79.50;96544.22;5073365;28;20101;-64
2023/04/29 01:44:35;;;;;;;7.13;3.85;;;;;;;0.82;79.90;96548.53;5073535;28;20051;-64
2023/04/29 01:47:03;;;;;;;8.52;4.25;;;;;;;0.80;80.36;96536.47;5073452;28;20045;-65
2023/04/29 01:49:31;;;;;;;10.00;4.40;;;;;;;0.67;81.16;96541.63;5073421;28;20040;-63
2023/04/29 01:51:58;;;;;;;9.48;4.20;;;;;;;0.68;81.70;96535.63;5073301;28;20056;-65
2023/04/29 01:54:28;;;;;;;8.68;4.32;;;;;;;0.71;81.59;96535.63;5073175;28;20117;-67
2023/04/29 01:56:56;;;;;;;5.30;3.67;;;;;;;0.70;81.51;96533.91;5073220;28;20105;-63
2023/04/29 01:59:23;;;;;;;12.07;4.72;;;;;;;0.70;82.11;96533.91;5073468;28;20048;-61
2023/04/29 02:01:51;;;;;;;6.38;3.85;;;;;;;0.75;82.51;96533.91;5073188;28;20051;-64
2023/04/29 02:04:18;;;;;;;7.05;4.05;;;;;;;0.78;81.94;96535.66;5073213;28;20052;-62
2023/04/29 02:06:45;;;;;;;5.43;4.00;;;;;;;0.82;81.39;96537.34;5073053;28;20048;-65
2023/04/29 02:09:13;;;;;;;5.72;3.72;;;;;;;0.90;81.11;96532.22;5073095;28;20486;-62
2023/04/29 02:11:42;;;;;;;5.65;4.13;;;;;;;0.85;80.79;96524.47;5073470;28;20110;-65
2023/04/29 02:14:09;;;;;;;9.52;4.47;;;;;;;0.89;80.99;96531.34;5073023;28;20053;-64
2023/04/29 02:16:37;;;;;;;4.95;4.13;;;;;;;0.91;80.61;96528.78;5073098;28;20048;-63
2023/04/29 02:19:04;;;;;;;8.52;3.75;;;;;;;0.91;80.91;96524.50;5073195;28;20084;-65
2023/04/29 02:21:33;;;;;;;7.93;3.95;;;;;;;0.91;81.15;96519.34;5072888;28;20102;-66
2023/04/29 02:24:01;;;;;;;10.95;3.70;;;;;;;0.94;81.14;96523.63;5072981;28;20052;-63
2023/04/29 02:26:28;;;;;;;7.00;3.97;;;;;;;0.99;81.17;96524.47;5072905;28;20536;-64
2023/04/29 02:28:57;;;;;;;4.05;3.25;;;;;;;1.03;80.57;96526.19;5072897;28;20056;-64
2023/04/29 02:31:24;;;;;;;4.57;3.88;;;;;;;1.03;80.78;96527.91;5072952;28;20044;-66
2023/04/29 02:33:51;;;;;;;6.18;3.28;;;;;;;1.02;80.15;96521.03;5076389;28;20052;-63
2023/04/29 02:36:19;;;;;;;6.68;4.15;;;;;;;0.94;80.03;96527.06;5076849;28;20414;-62
2023/04/29 02:38:48;;;;;;;10.00;3.67;;;;;;;0.92;80.07;96525.31;5077280;28;20074;-66
2023/04/29 02:41:18;;;;;;;5.50;3.50;;;;;;;0.96;79.74;96527.91;5077033;28;20048;-64
2023/04/29 02:43:45;;;;;;;4.60;3.38;;;;;;;0.92;80.02;96526.19;5076953;28;20387;-62
2023/04/29 02:46:13;;;;;;;6.07;3.63;;;;;;;0.90;79.74;96516.75;5076842;28;20414;-62
2023/04/29 02:48:41;;;;;;;4.45;4.03;;;;;;;0.88;79.63;96516.75;5076843;28;20047;-66
2023/04/29 02:51:08;;;;;;;6.40;3.85;;;;;;;0.87;80.14;96523.63;5076717;28;20573;-65
2023/04/29 02:53:35;;;;;;;5.70;3.40;;;;;;;0.82;79.88;96527.06;5076690;28;20459;-62
2023/04/29 02:56:02;;;;;;;12.95;4.00;;;;;;;0.73;80.16;96526.16;5076565;28;20197;-63
2023/04/29 02:58:30;;;;;;;6.55;4.68;;;;;;;0.75;80.10;96527.03;5076671;28;20040;-65
2023/04/29 03:00:57;;;;;;;4.93;3.25;;;;;;;0.77;80.18;96518.44;5076542;28;20056;-63
2023/04/29 03:03:25;;;;;;;6.97;3.75;;;;;;;0.76;79.98;96522.75;5076571;28;20071;-61
2023/04/29 03:05:52;;;;;;;8.30;5.45;;;;;;;0.72;79.99;96523.63;5076481;28;20123;-63
2023/04/29 03:08:19;;;;;;;8.40;3.72;;;;;;;0.71;80.21;96530.47;5076338;28;20044;-66
2023/04/29 03:10:46;;;;;;;6.80;4.00;;;;;;;0.65;80.56;96529.59;5076357;28;20040;-63
2023/04/29 03:13:14;;;;;;;6.05;4.22;;;;;;;0.61;80.08;96514.13;5076503;28;20056;-62
2023/04/29 03:15:43;;;;;;;16.20;11.30;;;;;;;0.66;80.53;96529.59;5076350;28;20048;-64
2023/04/29 03:18:10;;;;;;;8.82;6.57;;;;;;;0.65;80.71;96530.47;5076262;28;20131;-63
2023/04/29 03:20:45;;;;;;;10.20;7.00;;;;;;;0.66;81.04;96533.91;5076078;28;20044;-63
2023/04/29 03:23:12;;;;;;;12.73;9.68;;;;;;;0.70;81.33;96530.47;5076427;28;20135;-64
2023/04/29 03:25:40;;;;;;;7.03;5.75;;;;;;;0.73;80.62;96535.63;5076110;28;20118;-63
2023/04/29 03:28:07;;;;;;;4.75;4.18;;;;;;;0.75;80.91;96531.31;5075948;28;20048;-63
2023/04/29 03:30:36;;;;;;;13.48;6.88;;;;;;;0.77;80.98;96529.63;5075894;28;20052;-60
2023/04/29 03:33:05;;;;;;;10.25;6.72;;;;;;;0.82;81.17;96525.34;5075954;28;20049;-66
2023/04/29 03:35:34;;;;;;;6.07;5.30;;;;;;;0.86;81.00;96536.50;5076004;28;20047;-64
2023/04/29 03:38:12;;;;;;;5.63;4.72;;;;;;;0.91;80.88;96526.19;5075870;28;20406;-63
2023/04/29 03:40:40;;;;;;;7.90;4.93;;;;;;;0.98;80.55;96533.94;5075671;28;20050;-66
2023/04/29 03:43:13;;;;;;;4.97;4.43;;;;;;;1.06;79.87;96539.09;5075254;28;20052;-63
2023/04/29 03:45:41;;;;;;;9.18;5.47;;;;;;;1.12;79.75;96531.31;5075683;28;20493;-62
2023/04/29 03:48:16;;;;;;;7.68;3.95;;;;;;;1.07;79.94;96540.78;5075502;28;20055;-62
2023/04/29 03:50:45;;;;;;;12.98;7.32;;;;;;;1.01;80.76;96535.63;5075588;28;20083;-63
2023/04/29 03:53:16;;;;;;;9.13;4.85;;;;;;;1.23;81.52;96546.78;5075658;28;20118;-64
2023/04/29 03:55:45;;;;;;;4.43;3.63;;;;;;;1.82;81.01;96548.41;5075447;28;20056;-61
2023/04/29 03:58:18;;;;;;;4.13;3.72;;;;;;;2.53;79.02;96544.63;5075398;28;20483;-65
2023/04/29 04:00:47;;;;;;;7.32;3.85;;;;;;;3.33;76.40;96549.22;5075426;28;20124;-61
2023/04/29 04:03:15;;;;;;;8.18;3.95;;;;;;;4.04;72.06;96545.03;5075654;28;20083;-63
2023/04/29 04:05:46;;;;;;;3.10;2.45;;;;;;;4.58;68.61;96552.16;5075316;28;20048;-61
2023/04/29 04:08:18;;;;;;;3.72;2.67;;;;;;;4.95;66.90;96551.59;5075237;28;20051;-64
2023/04/29 04:10:47;;;;;;;6.50;2.80;;;;;;;5.38;66.40;96552.66;5075112;28;20473;-66
2023/04/29 04:13:14;;;;;;;4.03;3.08;;;;;;;5.68;64.28;96549.53;5075136;28;20057;-65
2023/04/29 04:15:42;;;;;;;4.93;4.43;;;;;;;6.08;64.46;96550.53;5074978;28;20414;-64
2023/04/29 04:18:10;;;;;;;4.28;3.80;;;;;;;6.63;63.36;96552.03;5075091;28;20041;-61
2023/04/29 04:20:38;;;;;;;5.45;3.70;;;;;;;7.16;61.21;96569.00;5075068;28;20052;-60
2023/04/29 04:23:08;;;;;;;2.80;2.40;;;;;;;7.56;59.85;96559.38;5074565;28;20079;-65
2023/04/29 04:25:58;;;;;;;4.38;2.70;;;;;;;7.87;58.55;96560.31;5074695;28;20040;-65
2023/04/29 04:28:30;;;;;;;8.27;2.40;;;;;;;8.24;58.49;96559.31;5074852;28;20044;-65
2023/04/29 04:31:04;;;;;;;3.10;2.42;;;;;;;8.53;57.69;96552.41;5074852;28;20044;-66
2023/04/29 04:33:33;;;;;;;5.78;2.40;;;;;;;8.88;56.93;96551.41;5074739;28;20041;-63
2023/04/29 04:36:03;;;;;;;2.45;2.25;;;;;;;9.27;55.70;96551.03;5074673;28;20541;-62
2023/04/29 04:38:31;;;;;;;6.13;2.83;;;;;;;9.44;54.99;96553.09;5074758;28;20052;-66
2023/04/29 04:41:01;;;;;;;4.03;2.53;;;;;;;9.48;55.29;96557.31;5074629;28;20547;-65
2023/04/29 04:43:33;;;;;;;3.45;2.20;;;;;;;9.57;55.90;96555.31;5074531;28;20059;-62
2023/04/29 04:46:01;;;;;;;4.70;2.58;;;;;;;9.58;56.36;96547.38;5074669;28;20041;-66
2023/04/29 04:48:28;;;;;;;3.28;2.17;;;;;;;9.77;56.91;96548.53;5074497;28;20082;-65
2023/04/29 04:50:56;;;;;;;3.97;2.15;;;;;;;10.02;55.88;96548.50;5074438;28;20044;-63
2023/04/29 04:53:24;;;;;;;3.72;2.20;;;;;;;10.33;56.06;96549.19;5074444;28;20131;-64
2023/04/29 04:55:52;;;;;;;4.85;2.38;;;;;;;10.73;55.74;96554.69;5073695;28;20055;-62
2023/04/29 04:58:20;;;;;;;3.50;2.33;;;;;;;11.05;55.95;96560.41;5074227;28;20494;-64
2023/04/29 05:00:47;;;;;;;7.47;2.85;;;;;;;11.38;55.64;96554.75;5074266;28;20500;-63
2023/04/29 05:03:15;;;;;;;4.53;2.78;;;;;;;11.83;53.59;96562.50;5074244;28;20048;-63
2023/04/29 05:05:43;;;;;;;4.07;2.75;;;;;;;12.30;53.34;96557.06;5074144;28;20075;-65
2023/04/29 05:08:10;;;;;;;6.15;3.03;;;;;;;12.51;50.00;96561.34;5073998;28;20102;-61
2023/04/29 05:10:37;;;;;;;4.93;2.80;;;;;;;12.83;50.43;96562.56;5074212;28;20087;-62
2023/04/29 05:13:05;;;;;;;8.02;2.90;;;;;;;13.31;49.90;96565.53;5074030;28;20582;-61
2023/04/29 05:15:35;;;;;;;3.67;2.42;;;;;;;13.68;51.49;96562.88;5074131;28;20045;-65
2023/04/29 05:18:03;;;;;;;6.20;2.67;;;;;;;13.81;49.33;96565.75;5074221;28;20044;-63
2023/04/29 05:20:31;;;;;;;4.00;2.90;;;;;;;13.75;49.15;96564.28;5074156;28;20040;-63
2023/04/29 05:22:59;;;;;;;3.95;2.75;;;;;;;13.77;49.04;96562.44;5073807;28;20050;-65
2023/04/29 05:25:26;;;;;;;4.60;2.60;;;;;;;13.75;48.14;96556.41;5074011;28;20059;-65
2023/04/29 05:27:53;;;;;;;6.07;2.92;;;;;;;13.75;48.47;96560.78;5073947;28;20041;-62
2023/04/29 05:30:20;;;;;;;6.85;3.03;;;;;;;13.87;48.49;96568.06;5073581;28;20505;-64
2023/04/29 05:32:49;;;;;;;4.43;2.88;;;;;;;14.08;47.47;96561.75;5073818;28;20118;-61
2023/04/29 05:35:20;;;;;;;4.63;2.85;;;;;;;14.20;46.68;96557.66;5073485;28;20094;-65
2023/04/29 05:37:47;;;;;;;7.65;3.10;;;;;;;14.45;46.50;96548.47;5073434;28;20153;-63
2023/04/29 05:40:15;;;;;;;7.18;3.15;;;;;;;14.72;46.24;96551.38;5073506;28;20051;-64
2023/04/29 05:42:43;;;;;;;3.85;2.38;;;;;;;15.34;45.01;96549.78;5073252;28;20059;-62
2023/04/29 05:45:11;;;;;;;5.57;2.80;;;;;;;15.85;42.14;96555.66;5073474;28;20498;-62
2023/04/29 05:47:38;;;;;;;3.83;2.70;;;;;;;15.62;42.22;96549.97;5073335;28;20052;-60
2023/04/29 05:50:08;;;;;;;7.00;3.10;;;;;;;15.62;42.66;96552.63;5073381;28;20087;-63
2023/04/29 05:52:40;;;;;;;4.90;2.78;;;;;;;15.69;43.30;96548.66;5073297;28;20501;-62
2023/04/29 05:55:08;;;;;;;5.03;2.50;;;;;;;15.78;43.49;96548.09;5073198;28;20490;-61
2023/04/29 05:57:35;;;;;;;5.32;2.90;;;;;;;15.91;41.83;96548.25;5073296;28;20402;-62
2023/04/29 06:00:07;;;;;;;8.50;2.97;;;;;;;16.02;41.38;96539.69;5073255;28;20454;-63
2023/04/29 06:02:35;;;;;;;6.13;3.00;;;;;;;16.03;41.93;96538.78;5073144;28;20048;-64
2023/04/29 06:05:04;;;;;;;4.00;3.03;;;;;;;15.88;42.78;96532.59;5073105;28;20055;-63
2023/04/29 06:07:33;;;;;;;10.15;3.35;;;;;;;16.04;43.40;96537.84;5072639;28;20521;-63
2023/04/29 06:10:00;;;;;;;5.32;2.95;;;;;;;16.00;43.34;96541.59;5073223;28;20041;-60
2023/04/29 06:12:29;;;;;;;7.15;2.95;;;;;;;16.01;42.69;96542.44;5073168;28;20067;-66
2023/04/29 06:14:57;;;;;;;5.10;3.03;;;;;;;15.77;42.28;96541.16;5073024;28;20080;-63
2023/04/29 06:17:28;;;;;;;5.55;2.85;;;;;;;15.61;43.47;96542.97;5072907;28;20054;-62
2023/04/29 06:19:55;;;;;;;4.53;3.45;;;;;;;15.51;42.55;96537.41;5072922;28;20045;-64
2023/04/29 06:22:34;;;;;;;4.38;2.83;;;;;;;15.63;42.87;96544.59;5072966;28;20044;-61
2023/04/29 06:25:06;;;;;;;6.10;3.13;;;;;;;15.87;42.05;96537.97;5073007;28;20044;-62
2023/04/29 06:27:34;;;;;;;7.13;3.13;;;;;;;15.88;41.43;96537.88;5073028;28;20080;-65
2023/04/29 06:30:06;;;;;;;5.43;3.08;;;;;;;16.00;42.55;96535.47;5073033;28;20048;-65
2023/04/29 06:32:34;;;;;;;9.18;4.28;;;;;;;16.28;39.83;96532.00;5072869;28;20048;-62
2023/04/29 06:35:01;;;;;;;6.10;3.10;;;;;;;16.55;38.62;96530.38;5072949;28;20049;-64
2023/04/29 06:37:28;;;;;;;5.60;2.28;;;;;;;17.04;37.17;96536.16;5072966;28;20092;-62
2023/04/29 06:39:56;;;;;;;4.10;2.80;;;;;;;17.40;36.80;96524.13;5072796;28;20049;-62
2023/04/29 06:42:24;;;;;;;4.68;2.42;;;;;;;17.95;36.48;96512.59;5072542;28;20088;-62
2023/04/29 06:44:52;;;;;;;4.38;2.40;;;;;;;18.27;35.14;96516.66;5072711;28;20053;-63
2023/04/29 06:47:19;;;;;;;5.53;2.03;;;;;;;18.66;32.43;96514.78;5072673;28;20490;-61
2023/04/29 06:49:46;;;;;;;4.20;2.00;;;;;;;18.87;33.19;96514.19;5072769;28;20048;-60
2023/04/29 06:52:14;;;;;;;6.20;2.10;;;;;;;19.18;33.22;96519.94;5072958;28;20044;-64
2023/04/29 06:54:42;;;;;;;4.90;2.17;;;;;;;19.36;33.13;96508.97;5072587;28;20055;-65
2023/04/29 06:57:09;;;;;;;4.60;2.33;;;;;;;19.61;31.32;96509.75;5072633;28;20052;-62
2023/04/29 06:59:38;;;;;;;3.80;2.20;;;;;;;19.66;31.87;96509.41;5072624;28;20079;-62
2023/04/29 07:02:05;;;;;;;2.72;2.00;;;;;;;19.79;31.13;96504.00;5072664;28;20052;-63
2023/04/29 07:04:33;;;;;;;4.15;2.28;;;;;;;19.85;30.31;96500.03;5072798;28;20048;-61
2023/04/29 07:07:01;;;;;;;4.22;1.92;;;;;;;19.99;31.25;96507.81;5072446;28;20123;-63
2023/04/29 07:09:28;;;;;;;9.82;2.50;;;;;;;20.19;31.48;96503.63;5072585;28;20056;-63
2023/04/29 07:11:56;;;;;;;3.97;2.10;;;;;;;20.22;30.42;96504.38;5072450;28;20048;-62
2023/04/29 07:14:24;;;;;;;8.57;2.30;;;;;;;20.20;29.38;96492.03;5072466;28;20044;-61
2023/04/29 07:16:56;;;;;;;4.55;2.08;;;;;;;20.42;31.20;96502.78;5072340;28;20049;-63
2023/04/29 07:19:36;;;;;;;8.27;2.10;;;;;;;20.23;29.46;96504.25;5074693;28;20107;-63
2023/04/29 07:22:08;;;;;;;3.72;1.77;;;;;;;20.16;31.67;96492.38;5076008;28;20044;-62
2023/04/29 07:24:35;;;;;;;3.42;2.17;;;;;;;19.27;31.61;96499.84;5076061;28;20394;-62
2023/04/29 07:27:03;;;;;;;5.95;2.20;;;;;;;19.00;31.17;96502.72;5075977;28;20150;-63
2023/04/29 07:29:33;;;;;;;8.18;2.30;;;;;;;18.99;31.96;96504.50;5075922;28;20056;-63
2023/04/29 07:32:04;;;;;;;2.38;1.90;;;;;;;18.98;32.42;96508.13;5075923;28;20498;-60
2023/04/29 07:34:32;;;;;;;3.80;2.00;;;;;;;19.19;32.55;96497.78;5075909;28;20052;-61
2023/04/29 07:37:04;;;;;;;4.90;2.38;;;;;;;19.31;30.96;96500.47;5075768;28;20048;-62
2023/04/29 07:39:32;;;;;;;4.15;2.20;;;;;;;19.21;28.23;96489.72;5075769;28;20041;-60
2023/04/29 07:42:03;;;;;;;2.58;1.80;;;;;;;18.99;31.26;96490.44;5075727;28;20052;-60
2023/04/29 07:44:31;;;;;;;4.80;2.20;;;;;;;19.09;30.85;96494.13;5075658;28;20410;-63
2023/04/29 07:46:58;;;;;;;4.82;2.42;;;;;;;19.20;30.93;96488.00;5075748;28;20041;-63
2023/04/29 07:49:29;;;;;;;2.20;1.77;;;;;;;19.38;29.36;96484.97;5075655;28;20136;-65
2023/04/29 07:51:57;;;;;;;3.00;1.90;;;;;;;19.24;29.68;96484.19;5075521;28;20040;-64
2023/04/29 07:54:26;;;;;;;6.78;2.38;;;;;;;19.28;30.70;96480.34;5075651;28;20101;-63
2023/04/29 07:56:54;;;;;;;3.30;2.20;;;;;;;19.64;28.31;96485.66;5075334;28;20053;-62
2023/04/29 07:59:23;;;;;;;5.45;2.35;;;;;;;19.87;29.56;96479.56;5075498;28;20040;-60
2023/04/29 08:01:51;;;;;;;4.65;2.33;;;;;;;19.75;29.60;96479.50;5075602;28;20051;-63
2023/04/29 08:04:19;;;;;;;6.38;2.35;;;;;;;20.07;28.54;96470.06;5075481;28;20453;-63
2023/04/29 08:06:49;;;;;;;5.00;2.17;;;;;;;20.30;29.32;96462.09;5075274;28;20048;-64
2023/04/29 08:09:26;;;;;;;7.15;2.40;;;;;;;20.54;26.55;96467.28;5075305;28;20529;-61
2023/04/29 08:11:53;;;;;;;6.40;2.13;;;;;;;20.39;27.88;96458.72;5074996;28;20052;-63
2023/04/29 08:14:22;;;;;;;3.13;2.20;;;;;;;20.43;29.49;96457.50;5075166;28;20094;-65
2023/04/29 08:16:50;;;;;;;5.03;2.10;;;;;;;20.73;28.80;96447.19;5075143;28;20041;-61
2023/04/29 08:19:20;;;;;;;6.00;2.22;;;;;;;20.68;30.02;96447.56;5075061;28;20056;-62
2023/04/29 08:21:50;;;;;;;7.00;2.00;;;;;;;20.48;29.50;96443.88;5075076;28;20052;-63
2023/04/29 08:24:21;;;;;;;2.72;1.90;;;;;;;20.68;28.27;96441.44;5075065;28;20494;-61
2023/04/29 08:26:52;;;;;;;;;;;;;;;20.39;27.35;96440.13;5074764;28;20529;-61
2023/04/29 08:29:24;;;;;;;5.38;2.50;;;;;;;20.65;29.38;96434.53;5074428;28;20017;-60
2023/04/29 08:31:53;;;;;;;6.82;1.90;;;;;;;20.85;29.77;96429.41;5074233;28;20090;-64
2023/04/29 08:34:25;;;;;;;4.03;1.80;;;;;;;21.17;30.89;96430.41;5074706;28;20135;-60
2023/04/29 08:36:55;;;;;;;3.60;2.17;;;;;;;21.24;28.71;96431.59;5074639;28;20044;-65
2023/04/29 08:39:23;;;;;;;4.85;2.35;;;;;;;21.40;29.10;96419.69;5074736;28;20041;-63
2023/04/29 08:41:51;;;;;;;3.85;2.05;;;;;;;20.81;29.07;96426.16;5074592;28;20090;-60
2023/04/29 08:44:18;;;;;;;5.22;2.38;;;;;;;21.15;28.56;96427.88;5074845;28;20098;-61
2023/04/29 08:46:46;;;;;;;3.97;2.40;;;;;;;21.18;28.30;96426.78;5074504;28;20123;-64
2023/04/29 08:49:14;;;;;;;3.05;2.25;;;;;;;20.88;25.23;96422.97;5074383;28;20076;-60
2023/04/29 08:51:41;;;;;;;6.18;2.67;;;;;;;20.02;26.32;96419.97;5074468;28;20421;-66
2023/04/29 08:54:11;;;;;;;12.20;2.33;;;;;;;19.54;27.58;96413.03;5074379;28;20114;-60
2023/04/29 08:56:40;;;;;;;4.10;2.10;;;;;;;19.16;27.73;96409.69;5074326;28;20131;-62
2023/04/29 08:59:10;;;;;;;4.03;2.10;;;;;;;18.96;27.88;96409.31;5074336;28;20123;-63
2023/04/29 09:01:43;;;;;;;3.40;2.22;;;;;;;18.96;29.28;96414.63;5074242;28;20490;-64
2023/04/29 09:04:22;;;;;;;6.22;2.38;;;;;;;19.22;29.96;96403.06;5074124;28;20054;-62
2023/04/29 09:06:49;;;;;;;6.70;1.75;;;;;;;19.36;29.86;96399.38;5074330;28;20455;-62
2023/04/29 09:09:18;;;;;;;6.50;2.13;;;;;;;19.41;33.01;96398.06;5074320;28;20079;-64
2023/04/29 09:11:46;;;;;;;6.75;1.92;;;;;;;19.52;31.22;96396.38;5074193;28;20048;-61
2023/04/29 09:14:14;;;;;;;4.57;1.98;;;;;;;19.61;33.35;96395.69;5074105;28;20056;-64
2023/04/29 09:16:42;;;;;;;5.15;2.38;;;;;;;19.79;32.18;96396.06;5073867;28;20051;-62
2023/04/29 09:19:10;;;;;;;5.93;2.00;;;;;;;19.87;30.50;96390.16;5074123;28;20084;-64
2023/04/29 09:21:37;;;;;;;5.30;2.03;;;;;;;19.50;31.88;96385.91;5073867;28;20056;-63
2023/04/29 09:24:04;;;;;;;5.38;2.38;;;;;;;19.64;31.66;96384.84;5074107;28;20131;-61
2023/04/29 09:26:43;;;;;;;3.75;2.13;;;;;;;19.47;30.70;96387.97;5073843;28;20157;-63
2023/04/29 09:29:12;;;;;;;5.88;2.08;;;;;;;18.95;30.60;96389.09;5073676;28;20379;-63
2023/04/29 09:31:40;;;;;;;4.47;1.90;;;;;;;18.78;32.04;96388.53;5073751;28;20044;-60
2023/04/29 09:34:10;;;;;;;3.88;2.10;;;;;;;18.35;32.47;96389.88;5073648;28;20072;-64
2023/04/29 09:36:40;;;;;;;3.20;2.03;;;;;;;17.92;32.96;96384.03;5073666;28;20074;-60
2023/04/29 09:39:11;;;;;;;3.77;2.40;;;;;;;17.62;32.85;96374.63;5073439;28;20049;-62
2023/04/29 09:42:01;;;;;;;2.45;1.92;;;;;;;17.44;33.44;96379.38;5073308;28;20303;-64
2023/04/29 09:44:31;;;;;;;5.50;2.00;;;;;;;17.00;33.41;96370.81;5073382;28;20056;-62
2023/04/29 09:47:03;;;;;;;4.72;2.10;;;;;;;16.76;34.78;96363.59;5073349;28;20494;-62
2023/04/29 09:49:34;;;;;;;6.10;2.20;;;;;;;16.90;36.85;96358.25;5073346;28;20044;-63
2023/04/29 09:52:03;;;;;;;3.50;1.70;;;;;;;17.21;37.41;96365.94;5073319;28;20482;-64
2023/04/29 09:54:32;;;;;;;3.47;2.15;;;;;;;17.46;34.31;96353.66;5073230;28;20094;-63
2023/04/29 09:57:04;;;;;;;5.43;2.38;;;;;;;17.41;35.84;96353.16;5073251;28;20052;-65
2023/04/29 09:59:36;;;;;;;4.63;2.72;;;;;;;17.47;35.11;96347.44;5073251;28;20121;-60
2023/04/29 10:02:08;;;;;;;3.30;2.25;;;;;;;17.42;37.42;96349.56;5073193;28;20518;-64
2023/04/29 10:04:35;;;;;;;2.70;1.90;;;;;;;17.59;35.73;96348.41;5073157;28;20093;-61
2023/04/29 10:07:03;;;;;;;2.92;2.10;;;;;;;17.81;35.81;96344.22;5073123;28;20455;-63
2023/04/29 10:09:32;;;;;;;3.75;2.13;;;;;;;18.09;36.16;96342.25;5073166;28;20050;-63
2023/04/29 10:12:02;;;;;;;3.65;2.30;;;;;;;18.35;36.61;96336.06;5073174;28;20551;-62
2023/04/29 10:14:34;;;;;;;4.22;2.15;;;;;;;18.53;37.06;96337.38;5073016;28;20520;-61
2023/04/29 10:17:08;;;;;;;5.88;2.25;;;;;;;18.50;34.63;96344.69;5072965;28;20072;-65
2023/04/29 10:19:39;;;;;;;3.72;2.28;;;;;;;18.57;33.43;96343.28;5072915;28;20080;-64
2023/04/29 10:22:12;;;;;;;2.53;2.05;;;;;;;18.70;37.91;96324.69;5073011;28;20076;-64
2023/04/29 10:24:41;;;;;;;2.97;1.60;;;;;;;19.06;34.74;96327.34;5072730;28;20088;-60
2023/04/29 10:27:13;;;;;;;5.65;2.45;;;;;;;19.11;35.18;96327.84;5072617;28;20529;-62
2023/04/29 10:29:41;;;;;;;1.95;1.83;;;;;;;19.29;34.28;96325.59;5070692;28;20041;-62
2023/04/29 10:32:11;;;;;;;7.03;2.40;;;;;;;18.99;34.01;96324.28;5071796;28;20040;-62
2023/04/29 10:34:39;;;;;;;3.58;2.47;;;;;;;19.10;33.45;96318.22;5070762;28;20045;-61
2023/04/29 10:37:09;;;;;;;3.15;1.92;;;;;;;18.98;34.79;96322.63;5070788;28;20547;-64
2023/04/29 10:39:44;;;;;;;3.90;2.10;;;;;;;19.00;34.62;96310.09;5072493;28;20149;-60
2023/04/29 10:42:26;;;;;;;5.50;2.70;;;;;;;19.24;34.97;96318.97;5072528;28;20082;-64
2023/04/29 10:45:25;;;;;;;5.15;2.45;;;;;;;19.35;33.19;96323.44;5072826;28;20052;-62
2023/04/29 10:48:12;;;;;;;2.53;2.13;;;;;;;19.31;33.05;96322.84;5030189;28;20546;-65
2023/04/29 10:51:02;;;;;;;7.30;2.20;;;;;;;19.11;32.67;96314.59;5069277;28;20118;-65
2023/04/29 10:53:31;;;;;;;4.93;2.20;;;;;;;18.86;35.16;96311.13;5073832;28;20051;-60
2023/04/29 10:56:08;;;;;;;5.50;2.33;;;;;;;18.53;32.25;96310.91;5076247;28;20123;-65
2023/04/29 10:58:45;;;;;;;4.35;2.47;;;;;;;18.31;34.21;96309.81;5076555;28;20048;-63
2023/04/29 11:01:13;;;;;;;2.65;1.90;;;;;;;18.35;33.19;96321.03;5076799;28;20135;-61
2023/04/29 11:03:57;;;;;;;4.40;2.65;;;;;;;18.26;33.51;96303.19;5076427;28;20048;-64
2023/04/29 11:06:25;;;;;;;9.85;2.08;;;;;;;17.93;32.88;96308.13;5076251;28;20060;-64
2023/04/29 11:09:09;;;;;;;5.93;2.58;;;;;;;17.88;33.03;96307.63;5076486;28;20044;-61
2023/04/29 11:11:58;;;;;;;4.50;2.28;;;;;;;17.64;34.16;96309.25;5076385;28;20441;-62
2023/04/29 11:14:29;;;;;;;5.10;2.50;;;;;;;17.54;36.30;96310.84;5076076;28;20048;-62
2023/04/29 11:16:59;;;;;;;3.67;2.40;;;;;;;17.50;35.49;96310.22;5076528;28;20548;-63
2023/04/29 11:19:32;;;;;;;4.68;2.30;;;;;;;17.45;37.17;96304.41;5076194;28;20387;-65
2023/04/29 11:22:14;;;;;;;4.22;2.22;;;;;;;17.45;34.43;96300.94;5076107;28;20540;-62
2023/04/29 11:24:52;;;;;;;2.22;2.03;;;;;;;17.35;36.89;96301.56;5075895;28;20132;-64
2023/04/29 11:27:24;;;;;;;5.38;2.30;;;;;;;17.34;36.65;96307.78;5075973;28;20045;-63
2023/04/29 11:29:57;;;;;;;4.57;2.05;;;;;;;17.29;36.01;96302.84;5076234;28;20136;-62
2023/04/29 11:32:24;;;;;;;3.33;2.20;;;;;;;17.22;35.66;96295.44;5075780;28;20487;-62
2023/04/29 11:34:52;;;;;;;5.55;2.70;;;;;;;17.24;35.78;96296.16;5075126;28;20040;-64
2023/04/29 11:37:25;;;;;;;3.42;2.38;;;;;;;17.35;35.48;96287.50;5075810;28;20456;-62
2023/04/29 11:40:01;;;;;;;3.90;2.72;;;;;;;17.71;36.69;96285.00;5075786;28;20561;-63
2023/04/29 11:42:28;;;;;;;5.18;1.88;;;;;;;18.13;34.64;96280.28;5075649;28;20080;-65
2023/04/29 11:44:59;;;;;;;3.67;2.15;;;;;;;18.45;37.79;96281.47;5075078;28;20052;-63
2023/04/29 11:47:29;;;;;;;;;;;;;;;18.75;34.83;96277.50;5076187;28;20536;-59
2023/04/29 11:50:04;;;;;;;8.57;2.42;;;;;;;19.13;35.12;96270.28;5075559;28;19927;-66